Time;durP1;ratioP1;P1;durP2;ratioP2;P2;SDS_P1;SDS_P2;PMS_P1;PMS_P2;Temp;Humidity;BMP_temperature;BMP_pressure;BME280_temperature;BME280_humidity;BME280_pressure;Samples;Min_cycle;Max_cycle;Signal;HPM_P1;HPM_P2
2023/11/09 00:00:53;;;;;;;2.25;1.45;;;;;;;;;;2077644;28;20022;-83
2023/11/09 00:02:12;;;;;;;1.60;1.50;;;;;;;;;;2077978;28;20034;-88
2023/11/09 00:03:31;;;;;;;1.75;1.65;;;;;;;;;;2080385;28;20026;-88
2023/11/09 00:04:51;;;;;;;1.42;1.33;;;;;;;;;;2079560;28;20108;-90
2023/11/09 00:06:10;;;;;;;1.58;1.48;;;;;;;;;;2076016;28;20034;-91
2023/11/09 00:07:31;;;;;;;1.40;1.33;;;;;;;;;;2078097;28;20037;-88
2023/11/09 00:08:50;;;;;;;1.58;1.35;;;;;;;;;;2080664;28;20104;-88
2023/11/09 00:10:10;;;;;;;2.70;1.40;;;;;;;;;;2078985;28;20518;-86
2023/11/09 00:11:29;;;;;;;2.58;1.73;;;;;;;;;;2074739;28;20025;-86
2023/11/09 00:12:51;;;;;;;1.55;1.45;;;;;;;;;;2076741;28;21105;-87
2023/11/09 00:14:15;;;;;;;1.65;1.55;;;;;;;;;;2077774;28;20029;-87
2023/11/09 00:15:33;;;;;;;1.50;1.40;;;;;;;;;;2076925;28;20444;-86
2023/11/09 00:16:53;;;;;;;1.48;1.38;;;;;;;;;;2075140;28;20029;-87
2023/11/09 00:18:21;;;;;;;1.88;1.77;;;;;;;;;;2076594;28;20048;-87
2023/11/09 00:19:40;;;;;;;1.85;1.70;;;;;;;;;;2078929;28;20017;-86
2023/11/09 00:20:59;;;;;;;2.05;1.50;;;;;;;;;;2079608;28;20077;-87
2023/11/09 00:22:19;;;;;;;1.75;1.65;;;;;;;;;;2077182;28;20041;-87
2023/11/09 00:23:39;;;;;;;1.80;1.70;;;;;;;;;;2080229;28;20439;-87
2023/11/09 00:24:58;;;;;;;2.38;2.17;;;;;;;;;;2077363;28;20112;-88
2023/11/09 00:26:18;;;;;;;2.17;1.98;;;;;;;;;;2079949;28;21335;-86
2023/11/09 00:27:40;;;;;;;3.10;1.90;;;;;;;;;;2078963;28;20030;-85
2023/11/09 00:28:59;;;;;;;2.70;2.50;;;;;;;;;;2078435;28;20177;-87
2023/11/09 00:30:18;;;;;;;2.72;2.40;;;;;;;;;;2076363;28;20022;-87
2023/11/09 00:31:37;;;;;;;2.78;2.58;;;;;;;;;;2076354;28;20029;-87
2023/11/09 00:32:56;;;;;;;3.80;2.50;;;;;;;;;;2078610;28;20065;-86
2023/11/09 00:34:15;;;;;;;2.58;2.38;;;;;;;;;;2079137;28;20026;-87
2023/11/09 00:35:33;;;;;;;2.60;2.40;;;;;;;;;;2075301;28;20037;-87
2023/11/09 00:36:56;;;;;;;2.35;2.15;;;;;;;;;;2075901;28;20069;-87
2023/11/09 00:38:16;;;;;;;;;;;;;;;;;;2076322;28;20439;-87
2023/11/09 00:39:35;;;;;;;2.45;2.33;;;;;;;;;;2078757;28;20095;-85
2023/11/09 00:40:54;;;;;;;2.80;2.20;;;;;;;;;;2077880;28;20493;-88
2023/11/09 00:42:15;;;;;;;2.35;2.20;;;;;;;;;;2069708;28;20029;-88
2023/11/09 00:43:34;;;;;;;2.40;2.20;;;;;;;;;;2074928;28;20046;-88
2023/11/09 00:44:54;;;;;;;2.88;2.67;;;;;;;;;;2079147;28;20418;-88
2023/11/09 00:46:13;;;;;;;2.63;2.42;;;;;;;;;;2074703;28;20026;-87
2023/11/09 00:47:32;;;;;;;3.05;2.75;;;;;;;;;;2078920;28;20112;-88
2023/11/09 00:48:51;;;;;;;3.13;2.92;;;;;;;;;;2078636;28;20026;-88
2023/11/09 00:50:10;;;;;;;2.83;2.63;;;;;;;;;;2080075;28;20030;-87
2023/11/09 00:51:30;;;;;;;3.10;2.90;;;;;;;;;;2077162;28;20034;-86
2023/11/09 00:52:49;;;;;;;3.25;3.03;;;;;;;;;;2078163;28;20041;-89
2023/11/09 00:54:08;;;;;;;3.17;2.95;;;;;;;;;;2071858;28;20124;-88
2023/11/09 00:55:27;;;;;;;3.88;3.13;;;;;;;;;;2076495;28;20486;-84
2023/11/09 00:56:46;;;;;;;4.15;3.22;;;;;;;;;;2078291;28;20029;-87
2023/11/09 00:58:05;;;;;;;3.47;3.28;;;;;;;;;;2079480;28;20448;-88
2023/11/09 00:59:24;;;;;;;3.10;2.90;;;;;;;;;;2076472;28;20041;-86
2023/11/09 01:00:44;;;;;;;3.20;3.00;;;;;;;;;;2077559;28;20053;-87
2023/11/09 01:02:03;;;;;;;2.95;2.75;;;;;;;;;;2078428;28;20065;-87
2023/11/09 01:03:22;;;;;;;3.30;3.00;;;;;;;;;;2077262;28;20021;-87
2023/11/09 01:04:41;;;;;;;3.25;3.03;;;;;;;;;;2075218;28;20058;-88
2023/11/09 01:06:04;;;;;;;3.25;2.95;;;;;;;;;;2076151;28;20501;-87
2023/11/09 01:07:24;;;;;;;3.45;3.13;;;;;;;;;;2075542;28;20021;-85
2023/11/09 01:08:43;;;;;;;3.00;2.80;;;;;;;;;;2077142;28;20037;-86
2023/11/09 01:10:03;;;;;;;3.25;2.95;;;;;;;;;;2072815;28;20034;-86
2023/11/09 01:11:23;;;;;;;3.15;2.95;;;;;;;;;;2075124;28;20029;-86
2023/11/09 01:12:42;;;;;;;3.75;3.45;;;;;;;;;;2080337;28;20037;-87
2023/11/09 01:14:01;;;;;;;3.17;2.97;;;;;;;;;;2073423;28;20104;-77
2023/11/09 01:15:20;;;;;;;3.50;3.20;;;;;;;;;;2077777;28;20029;-77
2023/11/09 01:16:39;;;;;;;3.53;3.22;;;;;;;;;;2077123;28;20077;-76
2023/11/09 01:18:05;;;;;;;4.88;3.38;;;;;;;;;;2075958;28;20029;-77
2023/11/09 01:19:24;;;;;;;3.35;3.15;;;;;;;;;;2075944;28;20018;-80
2023/11/09 01:20:43;;;;;;;3.65;2.72;;;;;;;;;;2076095;28;20474;-78
2023/11/09 01:22:02;;;;;;;3.75;2.70;;;;;;;;;;2077120;28;20021;-78
2023/11/09 01:23:21;;;;;;;3.00;2.80;;;;;;;;;;2079602;28;20021;-78
2023/11/09 01:24:40;;;;;;;3.47;3.17;;;;;;;;;;2080427;28;20110;-78
2023/11/09 01:25:59;;;;;;;4.47;3.13;;;;;;;;;;2076451;28;20021;-79
2023/11/09 01:27:19;;;;;;;2.97;2.78;;;;;;;;;;2078091;28;20033;-79
2023/11/09 01:28:38;;;;;;;3.45;3.15;;;;;;;;;;2076132;28;20061;-81
2023/11/09 01:29:57;;;;;;;3.10;2.78;;;;;;;;;;2073690;28;20026;-78
2023/11/09 01:31:16;;;;;;;3.80;3.40;;;;;;;;;;2073918;28;20033;-79
2023/11/09 01:32:35;;;;;;;3.25;3.05;;;;;;;;;;2075635;28;20053;-78
2023/11/09 01:33:53;;;;;;;2.88;2.67;;;;;;;;;;2083987;28;20134;-78
2023/11/09 01:35:12;;;;;;;3.20;3.00;;;;;;;;;;2078492;28;20060;-80
2023/11/09 01:36:32;;;;;;;3.05;2.80;;;;;;;;;;2063516;28;20040;-80
2023/11/09 01:37:51;;;;;;;3.50;3.20;;;;;;;;;;2076539;28;20270;-79
2023/11/09 01:39:12;;;;;;;2.30;2.17;;;;;;;;;;2082957;28;20025;-80
2023/11/09 01:40:33;;;;;;;2.90;2.70;;;;;;;;;;2088580;28;20034;-78
2023/11/09 01:41:52;;;;;;;2.90;2.70;;;;;;;;;;2084599;28;20037;-81
2023/11/09 01:43:12;;;;;;;3.45;3.15;;;;;;;;;;2085299;28;20042;-79
2023/11/09 01:44:33;;;;;;;2.90;2.70;;;;;;;;;;2083989;28;20025;-78
2023/11/09 01:45:52;;;;;;;2.72;2.53;;;;;;;;;;2085261;28;20025;-77
2023/11/09 01:47:12;;;;;;;2.85;2.65;;;;;;;;;;2078665;28;20108;-79
2023/11/09 01:48:33;;;;;;;2.70;2.50;;;;;;;;;;2082840;28;20026;-79
2023/11/09 01:49:52;;;;;;;3.90;3.13;;;;;;;;;;2078771;28;20037;-78
2023/11/09 01:51:11;;;;;;;3.53;3.22;;;;;;;;;;2079922;28;20021;-79
2023/11/09 01:52:31;;;;;;;3.50;3.20;;;;;;;;;;2080928;28;20542;-78
2023/11/09 01:53:50;;;;;;;3.78;3.55;;;;;;;;;;2076134;28;20088;-81
2023/11/09 01:55:09;;;;;;;3.20;2.97;;;;;;;;;;2077126;28;20034;-80
2023/11/09 01:56:28;;;;;;;3.72;3.35;;;;;;;;;;2078250;28;20101;-79
2023/11/09 01:57:47;;;;;;;3.33;3.03;;;;;;;;;;2072378;28;20406;-80
2023/11/09 01:59:07;;;;;;;3.15;2.85;;;;;;;;;;2076830;28;20034;-79
2023/11/09 02:00:29;;;;;;;3.45;2.90;;;;;;;;;;2076220;28;20022;-81
2023/11/09 02:01:52;;;;;;;2.90;2.70;;;;;;;;;;2077431;28;20519;-80
2023/11/09 02:03:12;;;;;;;3.20;3.00;;;;;;;;;;2076168;28;20038;-78
2023/11/09 02:04:31;;;;;;;3.15;2.95;;;;;;;;;;2075131;28;20037;-77
2023/11/09 02:05:50;;;;;;;3.55;3.03;;;;;;;;;;2077541;28;20041;-80
2023/11/09 02:07:09;;;;;;;3.00;2.80;;;;;;;;;;2076691;28;20049;-80
2023/11/09 02:08:29;;;;;;;3.10;2.90;;;;;;;;;;2077432;28;20033;-79
2023/11/09 02:09:50;;;;;;;3.35;3.15;;;;;;;;;;2071844;28;20426;-78
2023/11/09 02:11:10;;;;;;;4.25;3.13;;;;;;;;;;2076060;28;20022;-79
2023/11/09 02:12:29;;;;;;;3.75;3.53;;;;;;;;;;2073953;28;20029;-79
2023/11/09 02:13:48;;;;;;;4.32;3.10;;;;;;;;;;2072409;28;20041;-79
2023/11/09 02:15:07;;;;;;;7.88;3.30;;;;;;;;;;2074813;28;20026;-80
2023/11/09 02:16:26;;;;;;;3.20;2.90;;;;;;;;;;2074312;28;20026;-79
2023/11/09 02:17:46;;;;;;;3.78;3.47;;;;;;;;;;2076932;28;20033;-79
2023/11/09 02:19:05;;;;;;;3.55;3.25;;;;;;;;;;2078755;28;20022;-80
2023/11/09 02:20:24;;;;;;;3.63;3.38;;;;;;;;;;2074837;28;20105;-79
2023/11/09 02:21:48;;;;;;;4.05;3.50;;;;;;;;;;2079024;28;20030;-81
2023/11/09 02:23:08;;;;;;;4.43;3.58;;;;;;;;;;2076906;28;20486;-79
2023/11/09 02:24:28;;;;;;;3.35;3.15;;;;;;;;;;2074553;28;20038;-78
2023/11/09 02:25:47;;;;;;;5.43;3.20;;;;;;;;;;2076200;28;20108;-80
2023/11/09 02:27:06;;;;;;;3.42;3.13;;;;;;;;;;2078763;28;20598;-78
2023/11/09 02:28:25;;;;;;;3.20;3.00;;;;;;;;;;2077271;28;20030;-79
2023/11/09 02:29:44;;;;;;;3.17;2.88;;;;;;;;;;2077566;28;20699;-80
2023/11/09 02:31:03;;;;;;;3.55;3.10;;;;;;;;;;2078219;28;20042;-79
2023/11/09 02:32:22;;;;;;;4.65;3.10;;;;;;;;;;2077175;28;20064;-80
2023/11/09 02:33:41;;;;;;;3.53;2.72;;;;;;;;;;2078374;28;20168;-79
2023/11/09 02:35:01;;;;;;;3.00;2.80;;;;;;;;;;2078521;28;20025;-79
2023/11/09 02:36:20;;;;;;;3.10;2.90;;;;;;;;;;2073105;28;20030;-79
2023/11/09 02:37:39;;;;;;;3.03;2.80;;;;;;;;;;2074074;28;20029;-79
2023/11/09 02:38:58;;;;;;;3.78;3.17;;;;;;;;;;2076448;28;20029;-78
2023/11/09 02:40:17;;;;;;;3.05;2.85;;;;;;;;;;2077468;28;20120;-78
2023/11/09 02:41:36;;;;;;;3.25;2.83;;;;;;;;;;2076649;28;20029;-80
2023/11/09 02:42:57;;;;;;;4.13;3.10;;;;;;;;;;2075195;28;20049;-79
2023/11/09 02:44:18;;;;;;;2.92;2.72;;;;;;;;;;2077492;28;20033;-79
2023/11/09 02:45:38;;;;;;;3.22;2.75;;;;;;;;;;2075472;28;20030;-80
2023/11/09 02:46:58;;;;;;;4.60;2.95;;;;;;;;;;2076761;28;20074;-79
2023/11/09 02:48:17;;;;;;;3.40;3.20;;;;;;;;;;2073657;28;20033;-79
2023/11/09 02:49:36;;;;;;;3.80;3.47;;;;;;;;;;2078646;28;20104;-80
2023/11/09 02:50:55;;;;;;;3.20;2.90;;;;;;;;;;2077503;28;20026;-79
2023/11/09 02:52:14;;;;;;;3.65;3.15;;;;;;;;;;2069482;28;20422;-79
2023/11/09 02:53:33;;;;;;;3.83;3.17;;;;;;;;;;2071086;28;20367;-79
2023/11/09 02:54:52;;;;;;;3.70;3.33;;;;;;;;;;2076171;28;20065;-79
2023/11/09 02:56:10;;;;;;;4.88;3.00;;;;;;;;;;2076482;28;20034;-78
2023/11/09 02:57:30;;;;;;;3.40;3.10;;;;;;;;;;2081105;28;20498;-79
2023/11/09 02:58:48;;;;;;;4.97;3.95;;;;;;;;;;2079056;28;20017;-78
2023/11/09 03:00:09;;;;;;;3.60;3.30;;;;;;;;;;2077696;28;20025;-79
2023/11/09 03:01:28;;;;;;;4.07;3.33;;;;;;;;;;2075953;28;20494;-79
2023/11/09 03:02:47;;;;;;;3.58;3.13;;;;;;;;;;2078857;28;20042;-79
2023/11/09 03:04:07;;;;;;;3.40;3.10;;;;;;;;;;2078637;28;20034;-80
2023/11/09 03:05:27;;;;;;;4.53;3.22;;;;;;;;;;2080913;28;20034;-80
2023/11/09 03:06:46;;;;;;;3.45;3.15;;;;;;;;;;2074574;28;20033;-79
2023/11/09 03:08:05;;;;;;;3.30;3.05;;;;;;;;;;2082541;28;20033;-79
2023/11/09 03:09:24;;;;;;;2.70;2.50;;;;;;;;;;2076403;28;20128;-81
2023/11/09 03:10:43;;;;;;;2.40;2.20;;;;;;;;;;2077215;28;20026;-79
2023/11/09 03:12:05;;;;;;;3.28;3.00;;;;;;;;;;2077085;28;20034;-79
2023/11/09 03:13:23;;;;;;;3.20;3.00;;;;;;;;;;2076703;28;20160;-80
2023/11/09 03:14:42;;;;;;;2.90;2.70;;;;;;;;;;2076350;28;20112;-79
2023/11/09 03:16:06;;;;;;;2.90;2.70;;;;;;;;;;2074817;28;20026;-79
2023/11/09 03:17:25;;;;;;;3.15;2.95;;;;;;;;;;2078834;28;20037;-79
2023/11/09 03:18:44;;;;;;;2.53;2.33;;;;;;;;;;2078005;28;20038;-78
2023/11/09 03:20:04;;;;;;;2.67;2.35;;;;;;;;;;2079000;28;20025;-81
2023/11/09 03:21:24;;;;;;;2.47;2.28;;;;;;;;;;2080009;28;20823;-79
2023/11/09 03:22:44;;;;;;;3.35;2.55;;;;;;;;;;2077307;28;20061;-80
2023/11/09 03:24:03;;;;;;;2.58;2.38;;;;;;;;;;2076817;28;20055;-79
2023/11/09 03:25:22;;;;;;;2.50;2.30;;;;;;;;;;2080669;28;20025;-79
2023/11/09 03:26:41;;;;;;;2.85;2.42;;;;;;;;;;2080781;28;20034;-79
2023/11/09 03:28:00;;;;;;;2.60;2.40;;;;;;;;;;2080109;28;20565;-80
2023/11/09 03:29:19;;;;;;;3.63;2.80;;;;;;;;;;2078195;28;20124;-78
2023/11/09 03:30:38;;;;;;;2.50;2.30;;;;;;;;;;2077648;28;20109;-81
2023/11/09 03:31:57;;;;;;;2.90;2.70;;;;;;;;;;2080836;28;20471;-79
2023/11/09 03:33:16;;;;;;;2.90;2.60;;;;;;;;;;2080014;28;20065;-79
2023/11/09 03:34:37;;;;;;;2.85;2.65;;;;;;;;;;2077143;28;20502;-79
2023/11/09 03:35:56;;;;;;;2.90;2.70;;;;;;;;;;2078603;28;20026;-78
2023/11/09 03:37:15;;;;;;;2.65;2.45;;;;;;;;;;2079189;28;20025;-79
2023/11/09 03:38:34;;;;;;;2.95;2.33;;;;;;;;;;2077912;28;20030;-79
2023/11/09 03:39:55;;;;;;;2.80;2.60;;;;;;;;;;2076131;28;20084;-79
2023/11/09 03:41:14;;;;;;;3.55;3.25;;;;;;;;;;2075390;28;20018;-80
2023/11/09 03:42:33;;;;;;;2.78;2.55;;;;;;;;;;2078668;28;20034;-79
2023/11/09 03:43:55;;;;;;;3.47;3.17;;;;;;;;;;2076399;28;20059;-79
2023/11/09 03:45:14;;;;;;;3.67;3.05;;;;;;;;;;2081424;28;20029;-79
2023/11/09 03:46:33;;;;;;;3.03;2.80;;;;;;;;;;2079506;28;20030;-79
2023/11/09 03:47:53;;;;;;;2.70;2.50;;;;;;;;;;2080174;28;20026;-78
2023/11/09 03:49:13;;;;;;;3.35;3.05;;;;;;;;;;2079283;28;20029;-79
2023/11/09 03:50:32;;;;;;;3.38;2.78;;;;;;;;;;2078444;28;20068;-80
2023/11/09 03:51:50;;;;;;;4.50;3.30;;;;;;;;;;2077139;28;20037;-78
2023/11/09 03:53:10;;;;;;;5.00;3.15;;;;;;;;;;2079069;28;20515;-77
2023/11/09 03:54:29;;;;;;;4.78;3.40;;;;;;;;;;2077643;28;20034;-79
2023/11/09 03:55:47;;;;;;;3.15;2.85;;;;;;;;;;2079888;28;20479;-78
2023/11/09 03:57:07;;;;;;;3.42;3.13;;;;;;;;;;2077808;28;20041;-79
2023/11/09 03:58:26;;;;;;;3.85;3.47;;;;;;;;;;2076210;28;20033;-79
2023/11/09 03:59:45;;;;;;;3.45;3.15;;;;;;;;;;2080522;28;20891;-78
2023/11/09 04:01:04;;;;;;;3.53;3.22;;;;;;;;;;2078538;28;20030;-79
2023/11/09 04:02:23;;;;;;;3.38;3.08;;;;;;;;;;2075215;28;20018;-78
2023/11/09 04:03:44;;;;;;;4.50;3.35;;;;;;;;;;2078519;28;20052;-78
2023/11/09 04:05:03;;;;;;;3.55;3.25;;;;;;;;;;2078735;28;20029;-78
2023/11/09 04:06:23;;;;;;;3.53;3.20;;;;;;;;;;2090094;28;20017;-79
2023/11/09 04:07:43;;;;;;;3.80;3.13;;;;;;;;;;2082495;28;20490;-78
2023/11/09 04:09:05;;;;;;;3.63;3.30;;;;;;;;;;2078043;28;20025;-78
2023/11/09 04:10:24;;;;;;;4.55;3.28;;;;;;;;;;2078448;28;20033;-78
2023/11/09 04:11:43;;;;;;;3.45;3.15;;;;;;;;;;2075975;28;20064;-79
2023/11/09 04:13:02;;;;;;;3.38;3.08;;;;;;;;;;2078193;28;20060;-78
2023/11/09 04:14:21;;;;;;;3.85;3.55;;;;;;;;;;2079034;28;20030;-78
2023/11/09 04:15:40;;;;;;;3.30;3.00;;;;;;;;;;2078146;28;20022;-78
2023/11/09 04:16:59;;;;;;;3.70;3.38;;;;;;;;;;2075004;28;20029;-79
2023/11/09 04:18:18;;;;;;;3.83;2.92;;;;;;;;;;2076145;28;20029;-78
2023/11/09 04:19:37;;;;;;;4.15;2.83;;;;;;;;;;2077290;28;20038;-79
2023/11/09 04:20:56;;;;;;;3.42;3.13;;;;;;;;;;2079657;28;20033;-79
2023/11/09 04:22:15;;;;;;;3.65;3.20;;;;;;;;;;2075656;28;20438;-79
2023/11/09 04:23:34;;;;;;;3.55;3.25;;;;;;;;;;2074596;28;20037;-78
2023/11/09 04:24:53;;;;;;;3.50;3.20;;;;;;;;;;2074633;28;20561;-79
2023/11/09 04:26:12;;;;;;;4.00;3.65;;;;;;;;;;2080826;28;20431;-79
2023/11/09 04:27:34;;;;;;;3.53;3.22;;;;;;;;;;2079053;28;20033;-79
2023/11/09 04:28:53;;;;;;;3.28;2.97;;;;;;;;;;2075951;28;20096;-78
2023/11/09 04:30:16;;;;;;;5.25;3.50;;;;;;;;;;2081597;28;20026;-81
2023/11/09 04:31:37;;;;;;;;;;;;;;;;;;2078495;28;20021;-80
2023/11/09 04:32:57;;;;;;;5.85;3.97;;;;;;;;;;2079176;28;19913;-78
2023/11/09 04:34:16;;;;;;;3.88;3.58;;;;;;;;;;2075843;28;20029;-79
2023/11/09 04:35:35;;;;;;;4.28;3.45;;;;;;;;;;2073464;28;20100;-79
2023/11/09 04:36:55;;;;;;;3.78;3.47;;;;;;;;;;2076861;28;20026;-78
2023/11/09 04:38:15;;;;;;;5.65;3.55;;;;;;;;;;2076631;28;20100;-78
2023/11/09 04:39:41;;;;;;;4.63;3.28;;;;;;;;;;2075121;28;20521;-78
2023/11/09 04:41:03;;;;;;;6.93;3.40;;;;;;;;;;2076956;28;20018;-78
2023/11/09 04:42:24;;;;;;;6.68;3.42;;;;;;;;;;2076630;28;20026;-78
2023/11/09 04:43:43;;;;;;;3.88;3.17;;;;;;;;;;2078928;28;20054;-82
2023/11/09 04:45:02;;;;;;;4.30;3.90;;;;;;;;;;2078589;28;20033;-77
2023/11/09 04:46:21;;;;;;;3.90;3.30;;;;;;;;;;2076197;28;20046;-78
2023/11/09 04:47:42;;;;;;;4.95;3.90;;;;;;;;;;2075770;28;20063;-80
2023/11/09 04:49:06;;;;;;;4.18;3.83;;;;;;;;;;2078182;28;20026;-77
2023/11/09 04:50:28;;;;;;;4.18;3.78;;;;;;;;;;2076326;28;20029;-78
2023/11/09 04:51:49;;;;;;;4.45;3.55;;;;;;;;;;2075943;28;20030;-78
2023/11/09 04:53:29;;;;;;;4.18;3.75;;;;;;;;;;2077463;28;20026;-78
2023/11/09 04:54:56;;;;;;;4.07;3.53;;;;;;;;;;2079331;28;20040;-79
2023/11/09 05:07:39;;;;;;;5.47;3.63;;;;;;;;;;2080594;28;20026;-78
2023/11/09 05:08:58;;;;;;;6.53;3.97;;;;;;;;;;2080163;28;20029;-78
2023/11/09 05:10:17;;;;;;;6.32;4.40;;;;;;;;;;2075140;28;20037;-79
2023/11/09 05:11:35;;;;;;;4.72;3.45;;;;;;;;;;2075823;28;20418;-78
2023/11/09 05:12:54;;;;;;;5.63;4.30;;;;;;;;;;2079347;28;20039;-80
2023/11/09 05:14:13;;;;;;;8.95;6.57;;;;;;;;;;2087080;28;20025;-81
2023/11/09 05:15:33;;;;;;;8.10;5.00;;;;;;;;;;2090790;28;20076;-79
2023/11/09 05:16:52;;;;;;;5.15;4.22;;;;;;;;;;2089402;28;20013;-79
2023/11/09 05:18:11;;;;;;;6.90;3.97;;;;;;;;;;2090188;28;20021;-81
2023/11/09 05:19:30;;;;;;;8.02;4.20;;;;;;;;;;2088046;28;20025;-80
2023/11/09 05:20:49;;;;;;;9.10;3.88;;;;;;;;;;2087203;28;20021;-80
2023/11/09 05:22:09;;;;;;;5.22;3.67;;;;;;;;;;2086659;28;20034;-80
2023/11/09 05:23:28;;;;;;;6.32;3.88;;;;;;;;;;2086471;28;20017;-80
2023/11/09 05:24:47;;;;;;;8.63;3.65;;;;;;;;;;2080346;28;20487;-80
2023/11/09 05:26:06;;;;;;;3.83;3.10;;;;;;;;;;2077729;28;20030;-79
2023/11/09 05:27:26;;;;;;;5.95;3.30;;;;;;;;;;2077141;28;20022;-79
2023/11/09 05:28:45;;;;;;;3.88;2.97;;;;;;;;;;2081978;28;20136;-78
2023/11/09 05:30:08;;;;;;;5.55;3.38;;;;;;;;;;2078442;28;20030;-78
2023/11/09 05:31:27;;;;;;;4.38;3.08;;;;;;;;;;2078206;28;20123;-78
2023/11/09 05:32:46;;;;;;;3.72;3.17;;;;;;;;;;2078337;28;20017;-78
2023/11/09 05:34:06;;;;;;;8.45;3.25;;;;;;;;;;2079945;28;20391;-76
2023/11/09 05:35:25;;;;;;;4.72;3.28;;;;;;;;;;2079650;28;20025;-80
2023/11/09 05:36:44;;;;;;;4.43;3.10;;;;;;;;;;2078703;28;20131;-76
2023/11/09 05:38:03;;;;;;;3.25;2.83;;;;;;;;;;2077721;28;20414;-76
2023/11/09 05:39:23;;;;;;;3.75;3.10;;;;;;;;;;2076977;28;20104;-76
2023/11/09 05:40:42;;;;;;;7.50;2.70;;;;;;;;;;2076094;28;20080;-77
2023/11/09 05:42:02;;;;;;;4.57;2.92;;;;;;;;;;2077250;28;20026;-76
2023/11/09 05:43:21;;;;;;;4.32;3.03;;;;;;;;;;2077863;28;20033;-76
2023/11/09 05:44:40;;;;;;;8.38;3.17;;;;;;;;;;2074950;28;20096;-79
2023/11/09 05:45:59;;;;;;;4.57;3.10;;;;;;;;;;2078843;28;20025;-76
2023/11/09 05:47:19;;;;;;;5.38;3.08;;;;;;;;;;2078422;28;20033;-76
2023/11/09 05:48:39;;;;;;;4.05;3.00;;;;;;;;;;2074905;28;20037;-77
2023/11/09 05:49:58;;;;;;;4.50;2.70;;;;;;;;;;2076538;28;20037;-76
2023/11/09 05:51:23;;;;;;;4.15;2.92;;;;;;;;;;2075163;28;20108;-75
2023/11/09 05:52:42;;;;;;;5.13;3.50;;;;;;;;;;2077735;28;20457;-78
2023/11/09 05:54:01;;;;;;;3.92;3.20;;;;;;;;;;2077226;28;20104;-76
2023/11/09 05:55:20;;;;;;;3.97;2.97;;;;;;;;;;2075059;28;20511;-75
2023/11/09 05:56:41;;;;;;;3.50;3.20;;;;;;;;;;2078132;28;20463;-75
2023/11/09 05:58:01;;;;;;;5.60;3.53;;;;;;;;;;2076766;28;20025;-76
2023/11/09 05:59:23;;;;;;;5.40;4.07;;;;;;;;;;2087589;28;20424;-78
2023/11/09 06:00:42;;;;;;;4.38;3.97;;;;;;;;;;2081816;28;20490;-77
2023/11/09 06:02:01;;;;;;;4.32;3.92;;;;;;;;;;2078667;28;20394;-76
2023/11/09 06:03:21;;;;;;;4.50;4.00;;;;;;;;;;2077168;28;20030;-79
2023/11/09 06:04:42;;;;;;;4.47;4.07;;;;;;;;;;2079404;28;20348;-76
2023/11/09 06:06:01;;;;;;;5.72;4.13;;;;;;;;;;2078547;28;20033;-76
2023/11/09 06:07:21;;;;;;;5.22;4.38;;;;;;;;;;2078859;28;20057;-76
2023/11/09 06:08:40;;;;;;;5.75;4.55;;;;;;;;;;2077566;28;20021;-75
2023/11/09 06:09:59;;;;;;;5.65;5.15;;;;;;;;;;2072725;28;20030;-76
2023/11/09 06:11:19;;;;;;;7.25;5.13;;;;;;;;;;2077864;28;20025;-78
2023/11/09 06:12:40;;;;;;;6.07;4.88;;;;;;;;;;2076013;28;20033;-77
2023/11/09 06:13:59;;;;;;;6.82;5.47;;;;;;;;;;2074684;28;20422;-75
2023/11/09 06:15:18;;;;;;;5.72;5.13;;;;;;;;;;2073358;28;20034;-76
2023/11/09 06:16:37;;;;;;;11.00;5.22;;;;;;;;;;2083520;28;20085;-76
2023/11/09 06:17:56;;;;;;;8.75;5.13;;;;;;;;;;2076325;28;20076;-78
2023/11/09 06:19:16;;;;;;;12.13;5.13;;;;;;;;;;2078626;28;20029;-76
2023/11/09 06:20:38;;;;;;;9.20;5.95;;;;;;;;;;2076431;28;20049;-77
2023/11/09 06:21:57;;;;;;;8.77;5.20;;;;;;;;;;2076939;28;20052;-78
2023/11/09 06:23:17;;;;;;;7.03;4.68;;;;;;;;;;2075457;28;20021;-77
2023/11/09 06:24:37;;;;;;;8.02;5.30;;;;;;;;;;2078173;28;20033;-77
2023/11/09 06:25:56;;;;;;;10.15;6.55;;;;;;;;;;2078454;28;20034;-78
2023/11/09 06:27:17;;;;;;;8.65;5.65;;;;;;;;;;2077567;28;20034;-78
2023/11/09 06:28:36;;;;;;;10.30;7.07;;;;;;;;;;2075272;28;20029;-79
2023/11/09 06:29:56;;;;;;;9.63;5.95;;;;;;;;;;2076637;28;20471;-78
2023/11/09 06:31:16;;;;;;;9.18;6.05;;;;;;;;;;2074274;28;20391;-79
2023/11/09 06:32:35;;;;;;;9.02;5.38;;;;;;;;;;2072099;28;20042;-79
2023/11/09 06:33:55;;;;;;;7.22;4.78;;;;;;;;;;2072720;28;20034;-78
2023/11/09 06:35:17;;;;;;;4.80;4.10;;;;;;;;;;2074302;28;20029;-79
2023/11/09 06:36:36;;;;;;;21.10;12.88;;;;;;;;;;2070184;28;20029;-78
2023/11/09 06:37:55;;;;;;;18.95;13.32;;;;;;;;;;2073202;28;20029;-79
2023/11/09 06:39:18;;;;;;;23.27;14.15;;;;;;;;;;2079571;28;20017;-79
2023/11/09 06:40:38;;;;;;;42.50;26.02;;;;;;;;;;2076966;28;20558;-80
2023/11/09 06:41:57;;;;;;;24.50;16.02;;;;;;;;;;2084574;28;20029;-79
2023/11/09 06:43:16;;;;;;;16.20;8.95;;;;;;;;;;2079876;28;20077;-78
2023/11/09 06:44:35;;;;;;;10.13;7.38;;;;;;;;;;2076632;28;20026;-79
2023/11/09 06:45:54;;;;;;;10.15;6.85;;;;;;;;;;2078666;28;20026;-79
2023/11/09 06:47:13;;;;;;;10.48;7.03;;;;;;;;;;2074218;28;20410;-77
2023/11/09 06:48:32;;;;;;;8.13;6.55;;;;;;;;;;2074549;28;20487;-78
2023/11/09 06:49:51;;;;;;;9.63;6.22;;;;;;;;;;2078907;28;20053;-79
2023/11/09 06:51:10;;;;;;;10.30;7.00;;;;;;;;;;2079686;28;20018;-80
2023/11/09 06:52:29;;;;;;;13.32;7.30;;;;;;;;;;2073974;28;20100;-81
2023/11/09 06:53:49;;;;;;;11.70;6.95;;;;;;;;;;2075215;28;20026;-80
2023/11/09 06:55:10;;;;;;;7.70;6.45;;;;;;;;;;2078163;28;20038;-79
2023/11/09 06:56:32;;;;;;;11.63;7.50;;;;;;;;;;2076343;28;20029;-78
2023/11/09 06:57:53;;;;;;;10.80;7.22;;;;;;;;;;2077064;28;20014;-81
2023/11/09 06:59:12;;;;;;;12.02;7.47;;;;;;;;;;2077512;28;20371;-80
2023/11/09 07:00:32;;;;;;;10.35;7.05;;;;;;;;;;2076564;28;20030;-79
2023/11/09 07:01:51;;;;;;;8.32;7.15;;;;;;;;;;2078648;28;20021;-80
2023/11/09 07:03:10;;;;;;;15.40;7.85;;;;;;;;;;2076689;28;20029;-79
2023/11/09 07:04:29;;;;;;;8.77;6.18;;;;;;;;;;2081551;28;20112;-80
2023/11/09 07:05:51;;;;;;;9.00;7.30;;;;;;;;;;2078903;28;20026;-79
2023/11/09 07:07:10;;;;;;;9.02;7.18;;;;;;;;;;2082245;28;20029;-78
2023/11/09 07:08:30;;;;;;;10.18;6.28;;;;;;;;;;2078109;28;20586;-79
2023/11/09 07:09:49;;;;;;;11.82;7.38;;;;;;;;;;2080454;28;20037;-79
2023/11/09 07:11:08;;;;;;;13.32;7.20;;;;;;;;;;2077069;28;20037;-79
2023/11/09 07:12:27;;;;;;;9.63;7.32;;;;;;;;;;2077524;28;20033;-78
2023/11/09 07:13:45;;;;;;;7.45;6.63;;;;;;;;;;2075371;28;20030;-79
2023/11/09 07:15:05;;;;;;;7.70;6.60;;;;;;;;;;2079544;28;20029;-79
2023/11/09 07:16:24;;;;;;;9.00;7.38;;;;;;;;;;2078171;28;20029;-79
2023/11/09 07:17:42;;;;;;;10.25;6.90;;;;;;;;;;2080215;28;20022;-78
2023/11/09 07:19:02;;;;;;;8.43;6.93;;;;;;;;;;2079671;28;20029;-79
2023/11/09 07:20:21;;;;;;;9.90;7.13;;;;;;;;;;2078675;28;20033;-79
2023/11/09 07:21:41;;;;;;;8.85;6.50;;;;;;;;;;2078370;28;20026;-79
2023/11/09 07:23:06;;;;;;;7.70;6.72;;;;;;;;;;2077833;28;20093;-79
2023/11/09 07:24:26;;;;;;;8.13;6.57;;;;;;;;;;2080557;28;20067;-79
2023/11/09 07:25:45;;;;;;;8.18;6.45;;;;;;;;;;2077305;28;20049;-80
2023/11/09 07:27:12;;;;;;;9.48;6.13;;;;;;;;;;2077759;28;20030;-79
2023/11/09 07:28:31;;;;;;;8.70;6.53;;;;;;;;;;2081797;28;20033;-79
2023/11/09 07:29:50;;;;;;;8.02;7.22;;;;;;;;;;2081479;28;20133;-80
2023/11/09 07:31:09;;;;;;;6.97;6.28;;;;;;;;;;2080994;28;20119;-79
2023/11/09 07:32:28;;;;;;;8.02;7.18;;;;;;;;;;2077815;28;20034;-78
2023/11/09 07:33:49;;;;;;;8.10;6.50;;;;;;;;;;2080419;28;20457;-79
2023/11/09 07:35:09;;;;;;;8.05;6.38;;;;;;;;;;2078979;28;20018;-78
2023/11/09 07:36:28;;;;;;;7.50;6.50;;;;;;;;;;2080293;28;20021;-79
2023/11/09 07:37:46;;;;;;;9.73;6.47;;;;;;;;;;2076440;28;20029;-80
2023/11/09 07:39:05;;;;;;;7.63;6.80;;;;;;;;;;2079427;28;20490;-78
2023/11/09 07:40:27;;;;;;;8.25;6.32;;;;;;;;;;2078592;28;20057;-80
2023/11/09 07:41:45;;;;;;;8.20;6.63;;;;;;;;;;2077270;28;20441;-79
2023/11/09 07:43:04;;;;;;;7.05;6.07;;;;;;;;;;2076562;28;20045;-79
2023/11/09 07:44:23;;;;;;;7.20;6.50;;;;;;;;;;2080661;28;20026;-80
2023/11/09 07:45:42;;;;;;;7.50;6.70;;;;;;;;;;2077831;28;20029;-79
2023/11/09 07:47:01;;;;;;;6.20;5.70;;;;;;;;;;2080910;28;20030;-79
2023/11/09 07:48:22;;;;;;;6.53;5.97;;;;;;;;;;2081095;28;20457;-79
2023/11/09 07:49:41;;;;;;;6.47;5.97;;;;;;;;;;2079179;28;20029;-79
2023/11/09 07:51:00;;;;;;;6.80;6.10;;;;;;;;;;2075713;28;20425;-78
2023/11/09 07:52:20;;;;;;;6.45;5.85;;;;;;;;;;2081299;28;20033;-78
2023/11/09 07:53:39;;;;;;;7.38;5.90;;;;;;;;;;2076775;28;20489;-79
2023/11/09 07:54:58;;;;;;;6.63;6.03;;;;;;;;;;2073092;28;20418;-78
2023/11/09 07:56:17;;;;;;;5.93;5.35;;;;;;;;;;2074196;28;20034;-81
2023/11/09 07:57:36;;;;;;;6.53;5.93;;;;;;;;;;2079466;28;20029;-79
2023/11/09 07:58:55;;;;;;;8.23;5.90;;;;;;;;;;2080505;28;20030;-78
2023/11/09 08:00:15;;;;;;;5.88;5.38;;;;;;;;;;2078008;28;20026;-79
2023/11/09 08:01:34;;;;;;;6.50;5.80;;;;;;;;;;2076973;28;20061;-79
2023/11/09 08:02:53;;;;;;;6.60;6.00;;;;;;;;;;2075351;28;20021;-79
2023/11/09 08:04:12;;;;;;;6.78;5.32;;;;;;;;;;2077120;28;20029;-78
2023/11/09 08:05:32;;;;;;;5.78;5.20;;;;;;;;;;2078483;28;20030;-79
2023/11/09 08:06:51;;;;;;;6.07;5.57;;;;;;;;;;2076932;28;20025;-79
2023/11/09 08:08:10;;;;;;;5.90;5.50;;;;;;;;;;2077141;28;20502;-78
2023/11/09 08:09:30;;;;;;;6.40;5.88;;;;;;;;;;2077418;28;20093;-77